sensor_id;sensor_type;location;lat;lon;timestamp;P1;durP1;ratioP1;P2;durP2;ratioP2
32295;SDS011;18781;51.550;5.418;2022-11-13T00:01:26;21.75;;;14.93;;
32295;SDS011;18781;51.550;5.418;2022-11-13T00:03:51;22.08;;;14.15;;
32295;SDS011;18781;51.550;5.418;2022-11-13T00:06:17;23.10;;;14.60;;
32295;SDS011;18781;51.550;5.418;2022-11-13T00:08:43;22.25;;;14.13;;
32295;SDS011;18781;51.550;5.418;2022-11-13T00:11:13;23.08;;;14.05;;
32295;SDS011;18781;51.550;5.418;2022-11-13T00:13:42;21.90;;;14.35;;
32295;SDS011;18781;51.550;5.418;2022-11-13T00:16:09;21.45;;;14.45;;
32295;SDS011;18781;51.550;5.418;2022-11-13T00:18:37;20.05;;;13.40;;
32295;SDS011;18781;51.550;5.418;2022-11-13T00:21:22;20.15;;;12.85;;
32295;SDS011;18781;51.550;5.418;2022-11-13T00:23:50;19.23;;;13.18;;
32295;SDS011;18781;51.550;5.418;2022-11-13T00:28:43;19.70;;;12.77;;
32295;SDS011;18781;51.550;5.418;2022-11-13T00:31:10;20.30;;;13.35;;
32295;SDS011;18781;51.550;5.418;2022-11-13T00:33:37;22.55;;;13.48;;
32295;SDS011;18781;51.550;5.418;2022-11-13T00:36:03;20.02;;;13.30;;
32295;SDS011;18781;51.550;5.418;2022-11-13T00:38:35;26.73;;;13.63;;
32295;SDS011;18781;51.550;5.418;2022-11-13T00:41:01;21.95;;;12.63;;
32295;SDS011;18781;51.550;5.418;2022-11-13T00:43:27;20.50;;;12.65;;
32295;SDS011;18781;51.550;5.418;2022-11-13T00:45:52;17.52;;;12.93;;
32295;SDS011;18781;51.550;5.418;2022-11-13T00:48:18;19.92;;;13.10;;
32295;SDS011;18781;51.550;5.418;2022-11-13T00:50:44;21.70;;;13.55;;
32295;SDS011;18781;51.550;5.418;2022-11-13T00:53:09;17.05;;;12.30;;
32295;SDS011;18781;51.550;5.418;2022-11-13T00:55:35;21.65;;;12.55;;
32295;SDS011;18781;51.550;5.418;2022-11-13T00:58:01;16.13;;;11.85;;
32295;SDS011;18781;51.550;5.418;2022-11-13T01:00:28;21.95;;;12.93;;
32295;SDS011;18781;51.550;5.418;2022-11-13T01:02:54;18.85;;;12.43;;
32295;SDS011;18781;51.550;5.418;2022-11-13T01:05:21;20.48;;;12.82;;
32295;SDS011;18781;51.550;5.418;2022-11-13T01:07:47;21.98;;;13.15;;
32295;SDS011;18781;51.550;5.418;2022-11-13T01:10:12;18.67;;;12.57;;
32295;SDS011;18781;51.550;5.418;2022-11-13T01:12:38;18.83;;;12.25;;
32295;SDS011;18781;51.550;5.418;2022-11-13T01:15:04;18.27;;;11.98;;
32295;SDS011;18781;51.550;5.418;2022-11-13T01:17:30;18.17;;;12.75;;
32295;SDS011;18781;51.550;5.418;2022-11-13T01:19:55;20.73;;;13.50;;
32295;SDS011;18781;51.550;5.418;2022-11-13T01:22:21;18.73;;;11.68;;
32295;SDS011;18781;51.550;5.418;2022-11-13T01:24:46;16.65;;;11.38;;
32295;SDS011;18781;51.550;5.418;2022-11-13T01:27:12;16.10;;;11.52;;
32295;SDS011;18781;51.550;5.418;2022-11-13T01:29:39;17.65;;;11.68;;
32295;SDS011;18781;51.550;5.418;2022-11-13T01:32:05;17.70;;;11.80;;
32295;SDS011;18781;51.550;5.418;2022-11-13T01:34:30;20.25;;;11.82;;
32295;SDS011;18781;51.550;5.418;2022-11-13T01:36:56;20.50;;;11.75;;
32295;SDS011;18781;51.550;5.418;2022-11-13T01:39:21;17.00;;;11.50;;
32295;SDS011;18781;51.550;5.418;2022-11-13T01:41:47;18.27;;;11.63;;
32295;SDS011;18781;51.550;5.418;2022-11-13T01:44:13;17.58;;;11.35;;
32295;SDS011;18781;51.550;5.418;2022-11-13T01:46:44;17.05;;;11.23;;
32295;SDS011;18781;51.550;5.418;2022-11-13T01:49:23;18.75;;;11.93;;
32295;SDS011;18781;51.550;5.418;2022-11-13T01:54:27;42.25;;;20.02;;
32295;SDS011;18781;51.550;5.418;2022-11-13T01:56:55;43.92;;;20.05;;
32295;SDS011;18781;51.550;5.418;2022-11-13T01:59:25;38.38;;;19.02;;
32295;SDS011;18781;51.550;5.418;2022-11-13T02:01:53;39.97;;;18.50;;
32295;SDS011;18781;51.550;5.418;2022-11-13T02:04:20;36.85;;;17.40;;
32295;SDS011;18781;51.550;5.418;2022-11-13T02:06:48;32.85;;;16.17;;
32295;SDS011;18781;51.550;5.418;2022-11-13T02:09:17;27.75;;;14.23;;
32295;SDS011;18781;51.550;5.418;2022-11-13T02:11:46;25.63;;;13.18;;
32295;SDS011;18781;51.550;5.418;2022-11-13T02:14:12;18.17;;;11.93;;
32295;SDS011;18781;51.550;5.418;2022-11-13T02:16:40;22.27;;;12.70;;
32295;SDS011;18781;51.550;5.418;2022-11-13T02:19:18;30.00;;;14.48;;
32295;SDS011;18781;51.550;5.418;2022-11-13T02:22:27;28.92;;;14.15;;
32295;SDS011;18781;51.550;5.418;2022-11-13T02:24:46;41.00;;;18.27;;
32295;SDS011;18781;51.550;5.418;2022-11-13T02:27:15;40.63;;;18.23;;
32295;SDS011;18781;51.550;5.418;2022-11-13T02:30:20;31.42;;;15.05;;
32295;SDS011;18781;51.550;5.418;2022-11-13T02:32:49;31.48;;;14.27;;
32295;SDS011;18781;51.550;5.418;2022-11-13T02:35:19;23.75;;;13.38;;
32295;SDS011;18781;51.550;5.418;2022-11-13T02:37:48;26.25;;;13.38;;
32295;SDS011;18781;51.550;5.418;2022-11-13T02:40:14;26.20;;;13.50;;
32295;SDS011;18781;51.550;5.418;2022-11-13T02:42:40;20.73;;;12.18;;
32295;SDS011;18781;51.550;5.418;2022-11-13T02:45:06;20.90;;;11.57;;
32295;SDS011;18781;51.550;5.418;2022-11-13T02:47:32;19.58;;;11.60;;
32295;SDS011;18781;51.550;5.418;2022-11-13T02:49:58;18.08;;;10.88;;
32295;SDS011;18781;51.550;5.418;2022-11-13T02:52:23;15.00;;;10.32;;
32295;SDS011;18781;51.550;5.418;2022-11-13T02:54:49;14.98;;;9.55;;
32295;SDS011;18781;51.550;5.418;2022-11-13T02:57:15;17.52;;;10.20;;
32295;SDS011;18781;51.550;5.418;2022-11-13T02:59:40;18.27;;;10.07;;
32295;SDS011;18781;51.550;5.418;2022-11-13T03:02:06;18.65;;;10.45;;
32295;SDS011;18781;51.550;5.418;2022-11-13T03:04:31;16.98;;;10.18;;
32295;SDS011;18781;51.550;5.418;2022-11-13T03:06:57;20.33;;;10.07;;
32295;SDS011;18781;51.550;5.418;2022-11-13T03:09:23;18.05;;;10.10;;
32295;SDS011;18781;51.550;5.418;2022-11-13T03:11:48;22.30;;;11.30;;
32295;SDS011;18781;51.550;5.418;2022-11-13T03:14:14;19.63;;;10.68;;
32295;SDS011;18781;51.550;5.418;2022-11-13T03:16:39;15.40;;;9.55;;
32295;SDS011;18781;51.550;5.418;2022-11-13T03:19:05;14.02;;;9.65;;
32295;SDS011;18781;51.550;5.418;2022-11-13T03:21:31;17.83;;;10.32;;
32295;SDS011;18781;51.550;5.418;2022-11-13T03:23:56;20.25;;;10.93;;
32295;SDS011;18781;51.550;5.418;2022-11-13T03:26:22;18.70;;;10.90;;
32295;SDS011;18781;51.550;5.418;2022-11-13T03:28:48;16.67;;;10.13;;
32295;SDS011;18781;51.550;5.418;2022-11-13T03:31:14;19.48;;;10.60;;
32295;SDS011;18781;51.550;5.418;2022-11-13T03:33:39;16.15;;;9.77;;
32295;SDS011;18781;51.550;5.418;2022-11-13T03:36:05;20.75;;;11.90;;
32295;SDS011;18781;51.550;5.418;2022-11-13T03:38:32;28.50;;;12.88;;
32295;SDS011;18781;51.550;5.418;2022-11-13T03:40:58;26.75;;;13.18;;
32295;SDS011;18781;51.550;5.418;2022-11-13T03:43:24;25.40;;;11.98;;
32295;SDS011;18781;51.550;5.418;2022-11-13T03:45:49;28.25;;;12.63;;
32295;SDS011;18781;51.550;5.418;2022-11-13T03:48:15;34.17;;;13.32;;
32295;SDS011;18781;51.550;5.418;2022-11-13T03:50:41;34.85;;;14.77;;
32295;SDS011;18781;51.550;5.418;2022-11-13T03:53:09;34.65;;;14.40;;
32295;SDS011;18781;51.550;5.418;2022-11-13T03:55:35;30.05;;;14.02;;
32295;SDS011;18781;51.550;5.418;2022-11-13T03:58:00;23.80;;;11.75;;
32295;SDS011;18781;51.550;5.418;2022-11-13T04:00:26;31.45;;;13.57;;
32295;SDS011;18781;51.550;5.418;2022-11-13T04:02:51;31.67;;;12.85;;
32295;SDS011;18781;51.550;5.418;2022-11-13T04:05:17;23.70;;;11.43;;
32295;SDS011;18781;51.550;5.418;2022-11-13T04:07:42;26.92;;;11.07;;
32295;SDS011;18781;51.550;5.418;2022-11-13T04:10:08;26.92;;;12.15;;
32295;SDS011;18781;51.550;5.418;2022-11-13T04:12:34;28.30;;;12.25;;
32295;SDS011;18781;51.550;5.418;2022-11-13T04:14:59;27.10;;;12.63;;
32295;SDS011;18781;51.550;5.418;2022-11-13T04:17:25;26.30;;;12.63;;
32295;SDS011;18781;51.550;5.418;2022-11-13T04:19:50;31.80;;;12.27;;
32295;SDS011;18781;51.550;5.418;2022-11-13T04:22:16;24.65;;;11.57;;
32295;SDS011;18781;51.550;5.418;2022-11-13T04:24:41;27.58;;;11.60;;
32295;SDS011;18781;51.550;5.418;2022-11-13T04:27:07;23.98;;;11.48;;
32295;SDS011;18781;51.550;5.418;2022-11-13T04:29:33;21.23;;;10.50;;
32295;SDS011;18781;51.550;5.418;2022-11-13T04:31:58;29.77;;;12.50;;
32295;SDS011;18781;51.550;5.418;2022-11-13T04:34:24;24.33;;;11.57;;
32295;SDS011;18781;51.550;5.418;2022-11-13T04:36:50;21.92;;;10.88;;
32295;SDS011;18781;51.550;5.418;2022-11-13T04:39:15;17.25;;;9.50;;
32295;SDS011;18781;51.550;5.418;2022-11-13T04:41:41;15.38;;;9.45;;
32295;SDS011;18781;51.550;5.418;2022-11-13T04:44:25;19.33;;;10.88;;
32295;SDS011;18781;51.550;5.418;2022-11-13T04:46:51;16.42;;;10.00;;
32295;SDS011;18781;51.550;5.418;2022-11-13T04:49:17;19.00;;;10.23;;
32295;SDS011;18781;51.550;5.418;2022-11-13T04:51:42;17.05;;;9.73;;
32295;SDS011;18781;51.550;5.418;2022-11-13T04:54:08;21.65;;;10.55;;
32295;SDS011;18781;51.550;5.418;2022-11-13T04:56:33;17.05;;;9.63;;
32295;SDS011;18781;51.550;5.418;2022-11-13T04:58:59;16.17;;;9.65;;
32295;SDS011;18781;51.550;5.418;2022-11-13T05:01:24;17.23;;;9.45;;
32295;SDS011;18781;51.550;5.418;2022-11-13T05:03:50;14.80;;;9.27;;
32295;SDS011;18781;51.550;5.418;2022-11-13T05:06:15;19.65;;;10.20;;
32295;SDS011;18781;51.550;5.418;2022-11-13T05:08:41;19.27;;;9.82;;
32295;SDS011;18781;51.550;5.418;2022-11-13T05:11:06;15.88;;;10.38;;
32295;SDS011;18781;51.550;5.418;2022-11-13T05:13:33;15.57;;;9.75;;
32295;SDS011;18781;51.550;5.418;2022-11-13T05:16:00;18.75;;;10.32;;
32295;SDS011;18781;51.550;5.418;2022-11-13T05:18:26;18.30;;;10.48;;
32295;SDS011;18781;51.550;5.418;2022-11-13T05:20:52;17.15;;;10.02;;
32295;SDS011;18781;51.550;5.418;2022-11-13T05:23:18;15.25;;;9.82;;
32295;SDS011;18781;51.550;5.418;2022-11-13T05:25:43;16.90;;;10.02;;
32295;SDS011;18781;51.550;5.418;2022-11-13T05:28:09;16.27;;;10.10;;
32295;SDS011;18781;51.550;5.418;2022-11-13T05:30:34;15.77;;;9.05;;
32295;SDS011;18781;51.550;5.418;2022-11-13T05:33:00;12.23;;;9.02;;
32295;SDS011;18781;51.550;5.418;2022-11-13T05:35:26;14.20;;;8.68;;
32295;SDS011;18781;51.550;5.418;2022-11-13T05:37:51;15.98;;;9.40;;
32295;SDS011;18781;51.550;5.418;2022-11-13T05:40:17;18.67;;;9.32;;
32295;SDS011;18781;51.550;5.418;2022-11-13T05:42:42;15.93;;;10.05;;
32295;SDS011;18781;51.550;5.418;2022-11-13T05:45:08;15.40;;;9.20;;
32295;SDS011;18781;51.550;5.418;2022-11-13T05:47:34;20.65;;;9.60;;
32295;SDS011;18781;51.550;5.418;2022-11-13T05:49:59;16.33;;;9.02;;
32295;SDS011;18781;51.550;5.418;2022-11-13T05:52:25;18.27;;;9.13;;
32295;SDS011;18781;51.550;5.418;2022-11-13T05:54:51;16.13;;;8.85;;
32295;SDS011;18781;51.550;5.418;2022-11-13T05:57:16;13.63;;;8.95;;
32295;SDS011;18781;51.550;5.418;2022-11-13T05:59:42;17.35;;;9.40;;
32295;SDS011;18781;51.550;5.418;2022-11-13T06:02:08;14.30;;;8.80;;
32295;SDS011;18781;51.550;5.418;2022-11-13T06:04:33;15.75;;;8.85;;
32295;SDS011;18781;51.550;5.418;2022-11-13T06:06:59;13.88;;;8.68;;
32295;SDS011;18781;51.550;5.418;2022-11-13T06:09:24;13.75;;;8.27;;
32295;SDS011;18781;51.550;5.418;2022-11-13T06:11:50;14.38;;;9.00;;
32295;SDS011;18781;51.550;5.418;2022-11-13T06:14:15;12.73;;;8.50;;
32295;SDS011;18781;51.550;5.418;2022-11-13T06:16:41;13.27;;;7.72;;
32295;SDS011;18781;51.550;5.418;2022-11-13T06:19:07;14.18;;;8.75;;
32295;SDS011;18781;51.550;5.418;2022-11-13T06:21:34;14.48;;;8.65;;
32295;SDS011;18781;51.550;5.418;2022-11-13T06:24:02;15.80;;;9.27;;
32295;SDS011;18781;51.550;5.418;2022-11-13T06:26:30;16.77;;;8.85;;
32295;SDS011;18781;51.550;5.418;2022-11-13T06:28:57;16.52;;;9.27;;
32295;SDS011;18781;51.550;5.418;2022-11-13T06:31:25;14.80;;;8.82;;
32295;SDS011;18781;51.550;5.418;2022-11-13T06:33:52;17.75;;;9.40;;
32295;SDS011;18781;51.550;5.418;2022-11-13T06:36:19;19.02;;;9.80;;
32295;SDS011;18781;51.550;5.418;2022-11-13T06:38:47;20.70;;;9.98;;
32295;SDS011;18781;51.550;5.418;2022-11-13T06:41:14;24.90;;;10.95;;
32295;SDS011;18781;51.550;5.418;2022-11-13T06:43:41;24.40;;;11.50;;
32295;SDS011;18781;51.550;5.418;2022-11-13T06:46:12;25.73;;;11.80;;
32295;SDS011;18781;51.550;5.418;2022-11-13T06:48:42;21.77;;;11.52;;
32295;SDS011;18781;51.550;5.418;2022-11-13T06:51:10;22.20;;;11.32;;
32295;SDS011;18781;51.550;5.418;2022-11-13T06:53:41;20.75;;;10.63;;
32295;SDS011;18781;51.550;5.418;2022-11-13T06:56:08;20.38;;;10.93;;
32295;SDS011;18781;51.550;5.418;2022-11-13T06:58:34;23.70;;;10.88;;
32295;SDS011;18781;51.550;5.418;2022-11-13T07:01:04;19.55;;;10.02;;
32295;SDS011;18781;51.550;5.418;2022-11-13T07:03:31;16.75;;;9.90;;
32295;SDS011;18781;51.550;5.418;2022-11-13T07:05:59;18.70;;;10.98;;
32295;SDS011;18781;51.550;5.418;2022-11-13T07:08:27;16.75;;;9.55;;
32295;SDS011;18781;51.550;5.418;2022-11-13T07:10:53;17.67;;;9.60;;
32295;SDS011;18781;51.550;5.418;2022-11-13T07:13:19;17.88;;;9.32;;
32295;SDS011;18781;51.550;5.418;2022-11-13T07:15:45;15.25;;;9.27;;
32295;SDS011;18781;51.550;5.418;2022-11-13T07:18:11;18.17;;;10.02;;
32295;SDS011;18781;51.550;5.418;2022-11-13T07:20:37;19.67;;;9.05;;
32295;SDS011;18781;51.550;5.418;2022-11-13T07:23:02;14.18;;;9.70;;
32295;SDS011;18781;51.550;5.418;2022-11-13T07:25:28;17.00;;;9.77;;
32295;SDS011;18781;51.550;5.418;2022-11-13T07:27:55;18.77;;;9.32;;
32295;SDS011;18781;51.550;5.418;2022-11-13T07:30:20;18.10;;;10.00;;
32295;SDS011;18781;51.550;5.418;2022-11-13T07:32:46;21.95;;;9.82;;
32295;SDS011;18781;51.550;5.418;2022-11-13T07:35:12;18.70;;;11.07;;
32295;SDS011;18781;51.550;5.418;2022-11-13T07:37:38;16.75;;;9.50;;
32295;SDS011;18781;51.550;5.418;2022-11-13T07:40:04;17.33;;;8.55;;
32295;SDS011;18781;51.550;5.418;2022-11-13T07:42:31;15.52;;;9.38;;
32295;SDS011;18781;51.550;5.418;2022-11-13T07:44:56;17.05;;;9.57;;
32295;SDS011;18781;51.550;5.418;2022-11-13T07:47:22;22.45;;;9.80;;
32295;SDS011;18781;51.550;5.418;2022-11-13T07:49:48;15.60;;;10.05;;
32295;SDS011;18781;51.550;5.418;2022-11-13T07:52:14;21.15;;;10.38;;
32295;SDS011;18781;51.550;5.418;2022-11-13T07:54:39;16.55;;;9.52;;
32295;SDS011;18781;51.550;5.418;2022-11-13T07:57:05;16.05;;;9.77;;
32295;SDS011;18781;51.550;5.418;2022-11-13T07:59:30;16.42;;;9.88;;
32295;SDS011;18781;51.550;5.418;2022-11-13T08:01:56;13.55;;;9.73;;
32295;SDS011;18781;51.550;5.418;2022-11-13T08:04:21;17.77;;;9.93;;
32295;SDS011;18781;51.550;5.418;2022-11-13T08:06:47;15.10;;;9.80;;
32295;SDS011;18781;51.550;5.418;2022-11-13T08:09:13;15.15;;;9.63;;
32295;SDS011;18781;51.550;5.418;2022-11-13T08:11:38;19.45;;;9.90;;
32295;SDS011;18781;51.550;5.418;2022-11-13T08:14:04;14.68;;;10.32;;
32295;SDS011;18781;51.550;5.418;2022-11-13T08:16:29;17.85;;;11.30;;
32295;SDS011;18781;51.550;5.418;2022-11-13T08:18:55;16.33;;;10.52;;
32295;SDS011;18781;51.550;5.418;2022-11-13T08:21:20;18.60;;;11.52;;
32295;SDS011;18781;51.550;5.418;2022-11-13T08:23:46;17.40;;;10.70;;
32295;SDS011;18781;51.550;5.418;2022-11-13T08:26:14;21.85;;;11.57;;
32295;SDS011;18781;51.550;5.418;2022-11-13T08:28:41;18.75;;;11.90;;
32295;SDS011;18781;51.550;5.418;2022-11-13T08:31:09;17.17;;;11.48;;
32295;SDS011;18781;51.550;5.418;2022-11-13T08:33:36;18.48;;;10.65;;
32295;SDS011;18781;51.550;5.418;2022-11-13T08:36:02;19.65;;;11.82;;
32295;SDS011;18781;51.550;5.418;2022-11-13T08:38:27;20.98;;;11.63;;
32295;SDS011;18781;51.550;5.418;2022-11-13T08:40:59;18.45;;;11.23;;
32295;SDS011;18781;51.550;5.418;2022-11-13T08:43:26;17.23;;;10.98;;
32295;SDS011;18781;51.550;5.418;2022-11-13T08:45:52;19.17;;;12.43;;
32295;SDS011;18781;51.550;5.418;2022-11-13T08:48:17;22.30;;;11.82;;
32295;SDS011;18781;51.550;5.418;2022-11-13T08:50:43;14.02;;;10.55;;
32295;SDS011;18781;51.550;5.418;2022-11-13T08:53:09;15.07;;;10.55;;
32295;SDS011;18781;51.550;5.418;2022-11-13T08:55:35;16.70;;;10.30;;
32295;SDS011;18781;51.550;5.418;2022-11-13T08:58:01;17.67;;;10.20;;
32295;SDS011;18781;51.550;5.418;2022-11-13T09:00:28;16.58;;;10.70;;
32295;SDS011;18781;51.550;5.418;2022-11-13T09:02:55;17.92;;;11.65;;
32295;SDS011;18781;51.550;5.418;2022-11-13T09:05:22;15.70;;;10.18;;
32295;SDS011;18781;51.550;5.418;2022-11-13T09:07:49;14.13;;;10.48;;
32295;SDS011;18781;51.550;5.418;2022-11-13T09:10:15;20.42;;;10.02;;
32295;SDS011;18781;51.550;5.418;2022-11-13T09:12:42;14.05;;;9.65;;
32295;SDS011;18781;51.550;5.418;2022-11-13T09:15:07;16.80;;;10.50;;
32295;SDS011;18781;51.550;5.418;2022-11-13T09:17:33;18.02;;;10.00;;
32295;SDS011;18781;51.550;5.418;2022-11-13T09:19:59;14.13;;;9.52;;
32295;SDS011;18781;51.550;5.418;2022-11-13T09:22:25;14.93;;;10.05;;
32295;SDS011;18781;51.550;5.418;2022-11-13T09:24:50;20.92;;;9.48;;
32295;SDS011;18781;51.550;5.418;2022-11-13T09:27:16;13.98;;;9.63;;
32295;SDS011;18781;51.550;5.418;2022-11-13T09:29:42;13.88;;;9.30;;
32295;SDS011;18781;51.550;5.418;2022-11-13T09:32:07;14.57;;;9.98;;
32295;SDS011;18781;51.550;5.418;2022-11-13T09:34:33;15.43;;;9.73;;
32295;SDS011;18781;51.550;5.418;2022-11-13T09:36:59;15.93;;;8.73;;
32295;SDS011;18781;51.550;5.418;2022-11-13T09:39:24;17.77;;;10.27;;
32295;SDS011;18781;51.550;5.418;2022-11-13T09:41:52;14.18;;;9.18;;
32295;SDS011;18781;51.550;5.418;2022-11-13T09:47:01;15.13;;;9.13;;
32295;SDS011;18781;51.550;5.418;2022-11-13T09:49:33;15.63;;;8.82;;
32295;SDS011;18781;51.550;5.418;2022-11-13T09:52:08;15.40;;;8.95;;
32295;SDS011;18781;51.550;5.418;2022-11-13T09:54:55;14.45;;;9.43;;
32295;SDS011;18781;51.550;5.418;2022-11-13T10:05:38;11.07;;;8.30;;
32295;SDS011;18781;51.550;5.418;2022-11-13T10:08:17;11.50;;;8.07;;
32295;SDS011;18781;51.550;5.418;2022-11-13T10:10:47;11.65;;;8.93;;
32295;SDS011;18781;51.550;5.418;2022-11-13T10:13:26;11.85;;;8.75;;
32295;SDS011;18781;51.550;5.418;2022-11-13T10:16:43;13.57;;;8.32;;
32295;SDS011;18781;51.550;5.418;2022-11-13T10:18:52;14.40;;;9.30;;
32295;SDS011;18781;51.550;5.418;2022-11-13T10:21:26;12.20;;;8.73;;
32295;SDS011;18781;51.550;5.418;2022-11-13T10:23:57;13.93;;;9.35;;
32295;SDS011;18781;51.550;5.418;2022-11-13T10:26:28;14.07;;;8.90;;
32295;SDS011;18781;51.550;5.418;2022-11-13T10:28:59;16.83;;;9.68;;
32295;SDS011;18781;51.550;5.418;2022-11-13T10:31:40;13.50;;;9.50;;
32295;SDS011;18781;51.550;5.418;2022-11-13T10:34:07;16.75;;;10.30;;
32295;SDS011;18781;51.550;5.418;2022-11-13T10:36:47;14.35;;;8.50;;
32295;SDS011;18781;51.550;5.418;2022-11-13T10:39:21;10.90;;;7.63;;
32295;SDS011;18781;51.550;5.418;2022-11-13T10:41:48;11.35;;;8.45;;
32295;SDS011;18781;51.550;5.418;2022-11-13T10:44:22;12.50;;;7.80;;
32295;SDS011;18781;51.550;5.418;2022-11-13T10:49:50;13.38;;;7.70;;
32295;SDS011;18781;51.550;5.418;2022-11-13T10:52:26;12.80;;;8.68;;
32295;SDS011;18781;51.550;5.418;2022-11-13T10:57:39;15.80;;;8.82;;
32295;SDS011;18781;51.550;5.418;2022-11-13T11:02:48;10.98;;;8.93;;
32295;SDS011;18781;51.550;5.418;2022-11-13T11:05:18;12.02;;;8.93;;
32295;SDS011;18781;51.550;5.418;2022-11-13T11:07:45;14.18;;;9.23;;
32295;SDS011;18781;51.550;5.418;2022-11-13T11:10:18;15.90;;;9.13;;
32295;SDS011;18781;51.550;5.418;2022-11-13T11:12:50;11.52;;;9.75;;
32295;SDS011;18781;51.550;5.418;2022-11-13T11:17:53;17.75;;;10.85;;
32295;SDS011;18781;51.550;5.418;2022-11-13T11:20:43;14.27;;;10.88;;
32295;SDS011;18781;51.550;5.418;2022-11-13T11:25:52;20.75;;;11.95;;
32295;SDS011;18781;51.550;5.418;2022-11-13T11:28:31;19.40;;;12.00;;
32295;SDS011;18781;51.550;5.418;2022-11-13T11:31:11;16.35;;;12.60;;
32295;SDS011;18781;51.550;5.418;2022-11-13T11:33:49;16.58;;;12.18;;
32295;SDS011;18781;51.550;5.418;2022-11-13T11:41:52;13.35;;;10.70;;
32295;SDS011;18781;51.550;5.418;2022-11-13T11:47:32;14.05;;;11.00;;
32295;SDS011;18781;51.550;5.418;2022-11-13T11:49:58;14.07;;;10.60;;
32295;SDS011;18781;51.550;5.418;2022-11-13T12:00:25;15.35;;;11.38;;
32295;SDS011;18781;51.550;5.418;2022-11-13T12:08:58;11.27;;;9.73;;
32295;SDS011;18781;51.550;5.418;2022-11-13T12:11:47;15.10;;;10.63;;
32295;SDS011;18781;51.550;5.418;2022-11-13T12:17:40;12.52;;;9.68;;
32295;SDS011;18781;51.550;5.418;2022-11-13T12:20:38;13.05;;;7.78;;
32295;SDS011;18781;51.550;5.418;2022-11-13T12:23:39;13.20;;;7.85;;
32295;SDS011;18781;51.550;5.418;2022-11-13T12:26:12;11.33;;;7.57;;
32295;SDS011;18781;51.550;5.418;2022-11-13T12:28:54;10.32;;;7.20;;
32295;SDS011;18781;51.550;5.418;2022-11-13T12:36:44;10.90;;;7.60;;
32295;SDS011;18781;51.550;5.418;2022-11-13T12:39:19;13.13;;;7.07;;
32295;SDS011;18781;51.550;5.418;2022-11-13T12:47:36;8.30;;;5.70;;
32295;SDS011;18781;51.550;5.418;2022-11-13T12:50:18;6.22;;;4.80;;
32295;SDS011;18781;51.550;5.418;2022-11-13T12:53:02;7.82;;;5.47;;
32295;SDS011;18781;51.550;5.418;2022-11-13T12:55:33;8.13;;;5.47;;
32295;SDS011;18781;51.550;5.418;2022-11-13T12:58:18;7.00;;;5.30;;
32295;SDS011;18781;51.550;5.418;2022-11-13T13:01:02;11.38;;;5.63;;
32295;SDS011;18781;51.550;5.418;2022-11-13T13:03:59;9.07;;;5.45;;
32295;SDS011;18781;51.550;5.418;2022-11-13T13:17:44;9.32;;;5.15;;
32295;SDS011;18781;51.550;5.418;2022-11-13T13:22:53;5.22;;;3.90;;
32295;SDS011;18781;51.550;5.418;2022-11-13T13:25:28;9.48;;;3.60;;
32295;SDS011;18781;51.550;5.418;2022-11-13T13:27:59;6.40;;;3.30;;
32295;SDS011;18781;51.550;5.418;2022-11-13T13:30:49;6.30;;;3.85;;
32295;SDS011;18781;51.550;5.418;2022-11-13T13:36:28;7.68;;;3.50;;
32295;SDS011;18781;51.550;5.418;2022-11-13T13:44:48;13.40;;;6.15;;
32295;SDS011;18781;51.550;5.418;2022-11-13T13:47:24;9.07;;;5.80;;
32295;SDS011;18781;51.550;5.418;2022-11-13T13:49:52;9.43;;;4.63;;
32295;SDS011;18781;51.550;5.418;2022-11-13T13:52:19;8.25;;;4.30;;
32295;SDS011;18781;51.550;5.418;2022-11-13T13:54:50;7.57;;;4.20;;
32295;SDS011;18781;51.550;5.418;2022-11-13T13:57:16;6.22;;;4.18;;
32295;SDS011;18781;51.550;5.418;2022-11-13T13:59:42;7.35;;;4.50;;
32295;SDS011;18781;51.550;5.418;2022-11-13T14:02:13;7.05;;;4.20;;
32295;SDS011;18781;51.550;5.418;2022-11-13T14:04:42;7.65;;;5.47;;
32295;SDS011;18781;51.550;5.418;2022-11-13T14:10:07;10.05;;;6.35;;
32295;SDS011;18781;51.550;5.418;2022-11-13T14:12:44;13.75;;;6.25;;
32295;SDS011;18781;51.550;5.418;2022-11-13T14:18:03;9.40;;;7.03;;
32295;SDS011;18781;51.550;5.418;2022-11-13T14:20:41;9.55;;;7.07;;
32295;SDS011;18781;51.550;5.418;2022-11-13T14:26:07;7.10;;;5.95;;
32295;SDS011;18781;51.550;5.418;2022-11-13T14:31:16;9.88;;;5.95;;
32295;SDS011;18781;51.550;5.418;2022-11-13T14:33:46;10.20;;;5.28;;
32295;SDS011;18781;51.550;5.418;2022-11-13T14:36:13;10.27;;;5.63;;
32295;SDS011;18781;51.550;5.418;2022-11-13T14:38:44;9.60;;;5.75;;
32295;SDS011;18781;51.550;5.418;2022-11-13T14:41:45;8.32;;;5.28;;
32295;SDS011;18781;51.550;5.418;2022-11-13T14:46:38;10.93;;;5.70;;
32295;SDS011;18781;51.550;5.418;2022-11-13T14:49:25;8.52;;;5.68;;
32295;SDS011;18781;51.550;5.418;2022-11-13T14:51:53;8.80;;;6.28;;
32295;SDS011;18781;51.550;5.418;2022-11-13T14:54:33;8.90;;;5.68;;
32295;SDS011;18781;51.550;5.418;2022-11-13T14:57:07;10.77;;;5.40;;
32295;SDS011;18781;51.550;5.418;2022-11-13T14:59:34;6.95;;;4.72;;
32295;SDS011;18781;51.550;5.418;2022-11-13T15:02:00;7.47;;;5.03;;
32295;SDS011;18781;51.550;5.418;2022-11-13T15:04:26;7.22;;;4.90;;
32295;SDS011;18781;51.550;5.418;2022-11-13T15:06:52;10.70;;;5.47;;
32295;SDS011;18781;51.550;5.418;2022-11-13T15:09:21;10.33;;;5.80;;
32295;SDS011;18781;51.550;5.418;2022-11-13T15:11:48;11.05;;;5.28;;
32295;SDS011;18781;51.550;5.418;2022-11-13T15:14:14;8.00;;;5.13;;
32295;SDS011;18781;51.550;5.418;2022-11-13T15:16:42;11.07;;;5.10;;
32295;SDS011;18781;51.550;5.418;2022-11-13T15:19:12;11.38;;;5.50;;
32295;SDS011;18781;51.550;5.418;2022-11-13T15:21:42;14.50;;;6.10;;
32295;SDS011;18781;51.550;5.418;2022-11-13T15:24:09;13.88;;;7.43;;
32295;SDS011;18781;51.550;5.418;2022-11-13T15:26:36;15.80;;;7.25;;
32295;SDS011;18781;51.550;5.418;2022-11-13T15:29:02;13.13;;;6.32;;
32295;SDS011;18781;51.550;5.418;2022-11-13T15:31:29;8.68;;;5.63;;
32295;SDS011;18781;51.550;5.418;2022-11-13T15:33:56;11.23;;;5.95;;
32295;SDS011;18781;51.550;5.418;2022-11-13T15:36:22;11.15;;;6.03;;
32295;SDS011;18781;51.550;5.418;2022-11-13T15:38:48;7.95;;;5.68;;
32295;SDS011;18781;51.550;5.418;2022-11-13T15:41:15;14.40;;;6.30;;
32295;SDS011;18781;51.550;5.418;2022-11-13T15:46:11;9.60;;;6.15;;
32295;SDS011;18781;51.550;5.418;2022-11-13T15:48:39;11.07;;;6.97;;
32295;SDS011;18781;51.550;5.418;2022-11-13T15:51:07;11.75;;;6.47;;
32295;SDS011;18781;51.550;5.418;2022-11-13T15:53:47;15.05;;;6.80;;
32295;SDS011;18781;51.550;5.418;2022-11-13T15:56:24;11.43;;;6.70;;
32295;SDS011;18781;51.550;5.418;2022-11-13T15:58:51;9.95;;;6.72;;
32295;SDS011;18781;51.550;5.418;2022-11-13T16:01:17;11.93;;;6.28;;
32295;SDS011;18781;51.550;5.418;2022-11-13T16:03:44;9.82;;;6.43;;
32295;SDS011;18781;51.550;5.418;2022-11-13T16:06:10;13.77;;;7.57;;
32295;SDS011;18781;51.550;5.418;2022-11-13T16:08:41;12.52;;;8.20;;
32295;SDS011;18781;51.550;5.418;2022-11-13T16:11:09;14.52;;;8.65;;
32295;SDS011;18781;51.550;5.418;2022-11-13T16:13:41;14.48;;;9.13;;
32295;SDS011;18781;51.550;5.418;2022-11-13T16:16:13;16.02;;;9.82;;
32295;SDS011;18781;51.550;5.418;2022-11-13T16:18:59;16.00;;;10.25;;
32295;SDS011;18781;51.550;5.418;2022-11-13T16:21:25;16.20;;;10.30;;
32295;SDS011;18781;51.550;5.418;2022-11-13T16:23:51;20.17;;;10.05;;